createdAt,value
2018-08-23T00:00:21.044Z,17.66
2018-08-23T00:01:22.426Z,17.73
2018-08-23T00:02:23.812Z,17.63
2018-08-23T00:03:25.204Z,17.62
2018-08-23T00:04:26.583Z,17.55
2018-08-23T00:05:27.962Z,17.47
2018-08-23T00:06:29.349Z,17.53
2018-08-23T00:07:30.732Z,17.55
2018-08-23T00:08:32.123Z,17.55
2018-08-23T00:09:33.543Z,17.58
2018-08-23T00:10:34.910Z,17.54
2018-08-23T00:11:36.276Z,17.54
2018-08-23T00:12:37.668Z,17.49
2018-08-23T00:13:39.055Z,17.47
2018-08-23T00:14:40.443Z,17.46
2018-08-23T00:15:41.837Z,17.45
2018-08-23T00:16:43.252Z,17.36
2018-08-23T00:17:44.597Z,17.39
2018-08-23T00:18:45.989Z,17.38
2018-08-23T00:19:47.374Z,17.32
2018-08-23T00:20:48.757Z,17.39
2018-08-23T00:21:50.131Z,17.24
2018-08-23T00:22:51.531Z,17.28
2018-08-23T00:23:52.909Z,17.33
2018-08-23T00:24:54.292Z,17.22
2018-08-23T00:25:55.675Z,17.21
2018-08-23T00:26:57.075Z,17.22
2018-08-23T00:27:58.455Z,17.24
2018-08-23T00:28:59.847Z,17.22
2018-08-23T00:30:01.237Z,17.12
2018-08-23T00:31:02.624Z,17.09
2018-08-23T00:32:04.004Z,17.14
2018-08-23T00:33:05.384Z,17.17
2018-08-23T00:34:06.762Z,17.06
2018-08-23T00:35:08.152Z,17.15
2018-08-23T00:36:09.538Z,17.10
2018-08-23T00:37:10.920Z,17.10
2018-08-23T00:38:12.312Z,17.10
2018-08-23T00:39:13.693Z,17.07
2018-08-23T00:40:15.081Z,17.10
2018-08-23T00:41:16.466Z,17.14
2018-08-23T00:42:17.855Z,17.10
2018-08-23T00:43:19.246Z,17.10
2018-08-23T00:44:20.625Z,17.15
2018-08-23T00:45:22.013Z,17.25
2018-08-23T00:46:23.405Z,17.15
2018-08-23T00:47:24.785Z,17.24
2018-08-23T00:48:26.162Z,17.24
2018-08-23T00:49:27.545Z,17.20
2018-08-23T00:50:28.938Z,17.14
2018-08-23T00:51:30.326Z,17.15
2018-08-23T00:52:31.706Z,17.09
2018-08-23T00:53:33.092Z,17.15
2018-08-23T00:54:34.476Z,17.06
2018-08-23T00:55:35.868Z,17.06
2018-08-23T00:56:37.249Z,17.09
2018-08-23T00:57:38.626Z,16.99
2018-08-23T00:58:40.018Z,17.12
2018-08-23T00:59:41.413Z,16.99
2018-08-23T01:00:42.790Z,16.99
2018-08-23T01:01:44.175Z,17.00
2018-08-23T01:02:45.558Z,16.95
2018-08-23T01:03:46.952Z,16.96
2018-08-23T01:04:48.344Z,16.92
2018-08-23T01:05:49.720Z,16.91
2018-08-23T01:06:51.103Z,16.92
2018-08-23T01:07:52.495Z,17.00
2018-08-23T01:08:53.899Z,16.95
2018-08-23T01:09:55.295Z,16.95
2018-08-23T01:10:56.683Z,16.96
2018-08-23T01:11:58.074Z,16.96
2018-08-23T01:12:59.468Z,16.91
2018-08-23T01:14:00.858Z,16.88
2018-08-23T01:15:02.238Z,16.87
2018-08-23T01:16:03.629Z,16.84
2018-08-23T01:17:05.148Z,16.84
2018-08-23T01:18:06.412Z,16.84
2018-08-23T01:19:07.788Z,16.84
2018-08-23T01:20:09.170Z,16.80
2018-08-23T01:21:10.559Z,16.73
2018-08-23T01:22:11.940Z,16.75
2018-08-23T01:23:13.332Z,16.72
2018-08-23T01:24:14.716Z,16.77
2018-08-23T01:25:16.110Z,16.77
2018-08-23T01:26:17.494Z,16.69
2018-08-23T01:27:18.879Z,16.73
2018-08-23T01:28:20.264Z,16.81
2018-08-23T01:29:21.655Z,16.73
2018-08-23T01:30:23.038Z,16.84
2018-08-23T01:31:24.432Z,16.80
2018-08-23T01:32:25.817Z,16.78
2018-08-23T01:33:27.221Z,16.72
2018-08-23T01:34:28.599Z,16.72
2018-08-23T01:35:29.970Z,16.75
2018-08-23T01:36:31.362Z,16.70
2018-08-23T01:37:32.739Z,16.72
2018-08-23T01:38:34.129Z,16.65
2018-08-23T01:39:35.517Z,16.72
2018-08-23T01:40:36.897Z,16.62
2018-08-23T01:41:38.276Z,16.72
2018-08-23T01:42:39.663Z,16.65
2018-08-23T01:43:41.050Z,16.62
2018-08-23T01:44:42.439Z,16.62
2018-08-23T01:45:43.832Z,16.60
2018-08-23T01:46:45.221Z,16.72
2018-08-23T01:47:46.612Z,16.73
2018-08-23T01:48:47.986Z,16.63
2018-08-23T01:49:49.375Z,16.66
2018-08-23T01:50:50.762Z,16.66
2018-08-23T01:51:52.150Z,16.69
2018-08-23T01:52:53.535Z,16.72
2018-08-23T01:53:54.918Z,16.69
2018-08-23T01:54:56.300Z,16.65
2018-08-23T01:55:57.684Z,16.75
2018-08-23T01:56:59.074Z,16.70
2018-08-23T01:58:00.467Z,16.67
2018-08-23T01:59:01.843Z,16.67
2018-08-23T02:00:03.223Z,16.67
2018-08-23T02:01:04.605Z,16.69
2018-08-23T02:02:05.993Z,16.67
2018-08-23T02:03:07.372Z,16.60
2018-08-23T02:04:08.758Z,16.55
2018-08-23T02:05:10.153Z,16.65
2018-08-23T02:06:11.537Z,16.63
2018-08-23T02:07:12.930Z,16.51
2018-08-23T02:08:14.331Z,16.63
2018-08-23T02:09:15.725Z,16.60
2018-08-23T02:10:17.101Z,16.51
2018-08-23T02:11:18.499Z,16.66
2018-08-23T02:12:19.887Z,16.55
2018-08-23T02:13:21.280Z,16.59
2018-08-23T02:14:22.669Z,16.54
2018-08-23T02:15:24.065Z,16.50
2018-08-23T02:16:25.441Z,16.48
2018-08-23T02:17:26.836Z,16.47
2018-08-23T02:18:28.215Z,16.50
2018-08-23T02:19:29.600Z,16.57
2018-08-23T02:20:30.982Z,16.52
2018-08-23T02:21:32.330Z,16.50
2018-08-23T02:22:33.714Z,16.47
2018-08-23T02:23:35.092Z,16.50
2018-08-23T02:24:37.011Z,16.47
2018-08-23T02:25:38.392Z,16.48
2018-08-23T02:26:39.780Z,16.41
2018-08-23T02:27:41.157Z,16.40
2018-08-23T02:28:42.542Z,16.34
2018-08-23T02:29:43.929Z,16.40
2018-08-23T02:30:45.321Z,16.42
2018-08-23T02:31:46.704Z,16.41
2018-08-23T02:32:48.089Z,16.23
2018-08-23T02:33:49.491Z,16.30
2018-08-23T02:34:50.873Z,16.29
2018-08-23T02:35:52.270Z,16.30
2018-08-23T02:36:53.652Z,16.27
2018-08-23T02:37:55.029Z,16.23
2018-08-23T02:38:56.416Z,16.27
2018-08-23T02:39:57.805Z,16.29
2018-08-23T02:40:59.193Z,16.23
2018-08-23T02:42:00.578Z,16.22
2018-08-23T02:43:01.966Z,16.25
2018-08-23T02:44:03.372Z,16.18
2018-08-23T02:45:04.734Z,16.22
2018-08-23T02:46:06.124Z,16.17
2018-08-23T02:47:07.504Z,16.14
2018-08-23T02:48:08.893Z,16.18
2018-08-23T02:49:10.282Z,16.11
2018-08-23T02:50:11.668Z,16.18
2018-08-23T02:51:13.057Z,16.17
2018-08-23T02:52:14.444Z,16.11
2018-08-23T02:53:15.834Z,16.17
2018-08-23T02:54:17.213Z,16.08
2018-08-23T02:55:18.595Z,16.08
2018-08-23T02:56:19.979Z,16.08
2018-08-23T02:57:21.362Z,16.04
2018-08-23T02:58:22.752Z,16.08
2018-08-23T02:59:24.137Z,16.10
2018-08-23T03:00:25.533Z,15.96
2018-08-23T03:01:26.901Z,16.08
2018-08-23T03:02:28.283Z,16.14
2018-08-23T03:03:29.689Z,16.11
2018-08-23T03:04:31.078Z,15.99
2018-08-23T03:05:32.465Z,16.10
2018-08-23T03:06:33.866Z,15.96
2018-08-23T03:07:35.246Z,15.96
2018-08-23T03:08:36.626Z,15.95
2018-08-23T03:09:38.013Z,16.03
2018-08-23T03:10:39.414Z,16.04
2018-08-23T03:11:40.792Z,16.03
2018-08-23T03:12:42.184Z,16.01
2018-08-23T03:13:44.458Z,16.10
2018-08-23T03:14:45.836Z,16.06
2018-08-23T03:15:47.228Z,16.01
2018-08-23T03:16:48.610Z,16.08
2018-08-23T03:17:50.009Z,16.01
2018-08-23T03:18:51.396Z,15.96
2018-08-23T03:19:52.785Z,15.96
2018-08-23T03:20:54.166Z,16.08
2018-08-23T03:21:55.554Z,15.96
2018-08-23T03:22:56.947Z,16.04
2018-08-23T03:23:58.335Z,15.93
2018-08-23T03:24:59.713Z,15.95
2018-08-23T03:26:01.101Z,15.95
2018-08-23T03:27:02.481Z,15.92
2018-08-23T03:28:03.863Z,15.93
2018-08-23T03:29:05.245Z,15.95
2018-08-23T03:30:06.632Z,15.92
2018-08-23T03:31:08.018Z,15.92
2018-08-23T03:32:09.412Z,15.92
2018-08-23T03:33:10.787Z,15.92
2018-08-23T03:34:12.174Z,15.89
2018-08-23T03:35:13.569Z,15.93
2018-08-23T03:36:14.949Z,15.95
2018-08-23T03:37:16.332Z,15.92
2018-08-23T03:38:17.724Z,15.99
2018-08-23T03:39:19.108Z,15.92
2018-08-23T03:40:20.498Z,15.91
2018-08-23T03:41:21.873Z,15.92
2018-08-23T03:42:23.264Z,15.96
2018-08-23T03:43:24.646Z,15.96
2018-08-23T03:44:26.038Z,15.93
2018-08-23T03:45:27.429Z,15.95
2018-08-23T03:46:28.807Z,15.89
2018-08-23T03:47:30.195Z,15.88
2018-08-23T03:48:31.583Z,15.85
2018-08-23T03:49:32.969Z,15.89
2018-08-23T03:50:34.357Z,15.84
2018-08-23T03:51:35.747Z,15.84
2018-08-23T03:52:37.216Z,15.81
2018-08-23T03:53:38.517Z,15.88
2018-08-23T03:54:39.908Z,15.84
2018-08-23T03:55:41.302Z,15.84
2018-08-23T03:56:42.673Z,15.85
2018-08-23T03:57:44.064Z,15.91
2018-08-23T03:58:45.456Z,15.89
2018-08-23T03:59:46.852Z,15.86
2018-08-23T04:00:48.237Z,15.89
2018-08-23T04:01:49.624Z,15.95
2018-08-23T04:02:51.017Z,15.95
2018-08-23T04:03:52.400Z,15.92
2018-08-23T04:04:53.782Z,15.93
2018-08-23T04:05:55.160Z,15.92
2018-08-23T04:06:56.545Z,15.91
2018-08-23T04:07:57.936Z,15.92
2018-08-23T04:08:59.312Z,15.92
2018-08-23T04:10:00.706Z,15.92
2018-08-23T04:11:02.092Z,15.95
2018-08-23T04:12:03.481Z,15.99
2018-08-23T04:13:04.862Z,15.95
2018-08-23T04:14:06.242Z,15.86
2018-08-23T04:15:07.639Z,15.88
2018-08-23T04:16:09.029Z,15.86
2018-08-23T04:17:10.415Z,15.88
2018-08-23T04:18:11.811Z,15.86
2018-08-23T04:19:13.198Z,15.86
2018-08-23T04:20:14.588Z,15.80
2018-08-23T04:21:15.968Z,15.84
2018-08-23T04:22:17.357Z,15.81
2018-08-23T04:23:18.749Z,15.88
2018-08-23T04:24:20.139Z,15.78
2018-08-23T04:25:21.524Z,15.89
2018-08-23T04:26:22.914Z,15.80
2018-08-23T04:27:24.301Z,15.84
2018-08-23T04:28:25.693Z,15.78
2018-08-23T04:29:27.800Z,15.84
2018-08-23T04:30:29.189Z,15.77
2018-08-23T04:31:30.576Z,15.77
2018-08-23T04:32:31.982Z,15.73
2018-08-23T04:33:33.374Z,15.81
2018-08-23T04:34:34.763Z,15.80
2018-08-23T04:35:36.149Z,15.84
2018-08-23T04:36:37.540Z,15.84
2018-08-23T04:37:38.927Z,15.85
2018-08-23T04:38:40.316Z,15.86
2018-08-23T04:39:41.712Z,15.86
2018-08-23T04:40:43.089Z,15.84
2018-08-23T04:41:44.483Z,15.85
2018-08-23T04:42:45.864Z,15.84
2018-08-23T04:43:47.257Z,15.89
2018-08-23T04:44:48.648Z,15.91
2018-08-23T04:45:50.042Z,15.95
2018-08-23T04:46:51.425Z,15.91
2018-08-23T04:47:52.808Z,15.89
2018-08-23T04:48:54.208Z,15.95
2018-08-23T04:49:55.591Z,15.89
2018-08-23T04:50:56.981Z,15.86
2018-08-23T04:51:58.364Z,15.85
2018-08-23T04:52:59.757Z,15.91
2018-08-23T04:54:01.145Z,15.91
2018-08-23T04:55:02.536Z,15.93
2018-08-23T04:56:03.924Z,15.89
2018-08-23T04:57:05.326Z,15.92
2018-08-23T04:58:06.720Z,15.91
2018-08-23T04:59:08.102Z,16.01
2018-08-23T05:00:09.489Z,16.07
2018-08-23T05:01:10.876Z,16.04
2018-08-23T05:02:12.267Z,16.01
2018-08-23T05:03:13.670Z,16.10
2018-08-23T05:04:15.062Z,16.07
2018-08-23T05:05:16.446Z,16.10
2018-08-23T05:06:17.838Z,16.13
2018-08-23T05:07:19.230Z,16.06
2018-08-23T05:08:20.623Z,16.23
2018-08-23T05:09:22.002Z,16.14
2018-08-23T05:10:23.399Z,16.22
2018-08-23T05:11:24.778Z,16.07
2018-08-23T05:12:26.172Z,16.10
2018-08-23T05:13:27.559Z,16.17
2018-08-23T05:14:28.941Z,16.22
2018-08-23T05:15:30.327Z,16.18
2018-08-23T05:16:31.713Z,16.22
2018-08-23T05:17:33.103Z,16.17
2018-08-23T05:18:34.496Z,16.26
2018-08-23T05:19:35.879Z,16.27
2018-08-23T05:20:37.265Z,16.36
2018-08-23T05:21:38.664Z,16.36
2018-08-23T05:22:40.047Z,16.33
2018-08-23T05:23:41.437Z,16.41
2018-08-23T05:24:42.822Z,16.44
2018-08-23T05:25:44.209Z,16.48
2018-08-23T05:26:45.593Z,16.51
2018-08-23T05:27:46.990Z,16.62
2018-08-23T05:28:48.369Z,16.59
2018-08-23T05:29:49.771Z,16.55
2018-08-23T05:30:51.152Z,16.66
2018-08-23T05:31:52.534Z,16.69
2018-08-23T05:32:53.922Z,16.72
2018-08-23T05:33:55.310Z,16.73
2018-08-23T05:34:56.704Z,16.75
2018-08-23T05:35:58.098Z,16.84
2018-08-23T05:36:59.486Z,16.84
2018-08-23T05:38:00.865Z,16.85
2018-08-23T05:39:02.265Z,16.95
2018-08-23T05:40:03.648Z,16.81
2018-08-23T05:41:05.038Z,16.98
2018-08-23T05:42:06.423Z,16.91
2018-08-23T05:43:07.813Z,16.95
2018-08-23T05:44:09.201Z,16.95
2018-08-23T05:45:10.590Z,16.96
2018-08-23T05:46:11.981Z,17.00
2018-08-23T05:47:13.377Z,17.00
2018-08-23T05:48:14.763Z,17.17
2018-08-23T05:49:16.146Z,17.28
2018-08-23T05:50:17.537Z,17.28
2018-08-23T05:51:18.970Z,17.30
2018-08-23T05:52:20.978Z,17.28
2018-08-23T05:53:22.850Z,17.33
2018-08-23T05:54:24.248Z,17.39
2018-08-23T05:55:25.649Z,17.38
2018-08-23T05:56:27.070Z,17.38
2018-08-23T05:57:28.470Z,17.42
2018-08-23T05:58:29.928Z,17.47
2018-08-23T05:59:31.301Z,17.53
2018-08-23T06:00:32.732Z,17.49
2018-08-23T06:01:34.150Z,17.62
2018-08-23T06:02:35.563Z,17.71
2018-08-23T06:03:36.956Z,17.73
2018-08-23T06:04:38.345Z,17.74
2018-08-23T06:05:39.733Z,17.83
2018-08-23T06:06:41.124Z,17.86
2018-08-23T06:07:42.516Z,17.96
2018-08-23T06:08:43.914Z,17.96
2018-08-23T06:09:45.303Z,18.07
2018-08-23T06:10:46.700Z,18.07
2018-08-23T06:11:48.083Z,18.20
2018-08-23T06:12:49.479Z,18.16
2018-08-23T06:13:50.875Z,18.25
2018-08-23T06:14:52.261Z,18.21
2018-08-23T06:15:53.659Z,18.38
2018-08-23T06:16:55.044Z,18.36
2018-08-23T06:17:56.437Z,18.46
2018-08-23T06:18:57.820Z,18.47
2018-08-23T06:19:59.241Z,18.59
2018-08-23T06:21:00.632Z,18.57
2018-08-23T06:22:02.020Z,18.71
2018-08-23T06:23:03.415Z,18.75
2018-08-23T06:24:04.809Z,18.87
2018-08-23T06:25:06.196Z,18.84
2018-08-23T06:26:07.583Z,18.90
2018-08-23T06:27:08.968Z,18.97
2018-08-23T06:28:10.368Z,19.13
2018-08-23T06:29:11.750Z,19.17
2018-08-23T06:30:13.150Z,19.39
2018-08-23T06:31:14.540Z,19.40
2018-08-23T06:32:15.930Z,19.43
2018-08-23T06:33:17.455Z,19.61
2018-08-23T06:34:18.714Z,19.78
2018-08-23T06:35:20.107Z,19.86
2018-08-23T06:36:21.495Z,19.98
2018-08-23T06:37:22.890Z,20.22
2018-08-23T06:38:24.291Z,20.35
2018-08-23T06:39:25.692Z,20.54
2018-08-23T06:40:27.086Z,20.66
2018-08-23T06:41:28.487Z,20.85
2018-08-23T06:42:29.877Z,21.00
2018-08-23T06:43:31.273Z,21.08
2018-08-23T06:44:32.707Z,21.15
2018-08-23T06:45:34.065Z,21.31
2018-08-23T06:46:35.456Z,21.51
2018-08-23T06:47:36.853Z,21.64
2018-08-23T06:48:38.237Z,21.68
2018-08-23T06:49:39.637Z,21.93
2018-08-23T06:50:41.044Z,22.01
2018-08-23T06:51:42.433Z,22.19
2018-08-23T06:52:43.816Z,22.26
2018-08-23T06:53:45.210Z,22.39
2018-08-23T06:54:46.601Z,22.46
2018-08-23T06:55:48.000Z,22.67
2018-08-23T06:56:49.382Z,22.76
2018-08-23T06:57:50.784Z,22.81
2018-08-23T06:58:52.199Z,22.99
2018-08-23T06:59:53.577Z,22.93
2018-08-23T07:00:54.975Z,22.96
2018-08-23T07:01:56.368Z,23.11
2018-08-23T07:02:57.770Z,23.15
2018-08-23T07:03:59.159Z,23.18
2018-08-23T07:05:00.549Z,23.31
2018-08-23T07:06:01.954Z,23.39
2018-08-23T07:07:03.369Z,23.39
2018-08-23T07:08:04.773Z,23.44
2018-08-23T07:09:06.164Z,23.57
2018-08-23T07:10:07.576Z,23.67
2018-08-23T07:11:08.982Z,23.71
2018-08-23T07:12:10.389Z,23.69
2018-08-23T07:13:11.781Z,23.77
2018-08-23T07:14:13.161Z,23.92
2018-08-23T07:15:14.568Z,23.94
2018-08-23T07:16:15.964Z,24.02
2018-08-23T07:17:17.455Z,24.05
2018-08-23T07:18:18.765Z,24.09
2018-08-23T07:19:20.245Z,24.16
2018-08-23T07:20:21.628Z,24.24
2018-08-23T07:21:23.024Z,24.33
2018-08-23T07:22:24.921Z,24.41
2018-08-23T07:23:26.313Z,24.46
2018-08-23T07:24:29.534Z,24.51
2018-08-23T07:25:30.935Z,24.59
2018-08-23T07:26:32.329Z,24.63
2018-08-23T07:27:33.728Z,24.79
2018-08-23T07:28:35.116Z,24.84
2018-08-23T07:29:36.506Z,24.87
2018-08-23T07:30:37.897Z,24.93
2018-08-23T07:31:39.296Z,24.97
2018-08-23T07:32:40.689Z,24.93
2018-08-23T07:33:42.093Z,25.01
2018-08-23T07:34:43.497Z,25.04
2018-08-23T07:35:44.891Z,25.16
2018-08-23T07:36:46.276Z,25.27
2018-08-23T07:37:47.697Z,25.30
2018-08-23T07:38:49.075Z,25.35
2018-08-23T07:39:50.467Z,25.38
2018-08-23T07:40:51.875Z,25.39
2018-08-23T07:41:53.268Z,25.46
2018-08-23T07:42:54.675Z,25.53
2018-08-23T07:43:56.059Z,25.54
2018-08-23T07:44:57.456Z,25.56
2018-08-23T07:45:58.854Z,25.64
2018-08-23T07:47:00.256Z,25.64
2018-08-23T07:48:01.646Z,25.63
2018-08-23T07:49:03.073Z,25.76
2018-08-23T07:50:04.450Z,25.75
2018-08-23T07:51:05.839Z,25.85
2018-08-23T07:52:07.232Z,25.89
2018-08-23T07:53:08.722Z,25.93
2018-08-23T07:54:10.029Z,26.00
2018-08-23T07:55:11.427Z,26.09
2018-08-23T07:56:12.817Z,26.23
2018-08-23T07:57:14.210Z,26.13
2018-08-23T07:58:15.611Z,26.24
2018-08-23T07:59:17.167Z,26.24
2018-08-23T08:00:18.550Z,26.32
2018-08-23T08:01:19.960Z,26.38
2018-08-23T08:02:21.353Z,26.46
2018-08-23T08:03:22.756Z,26.51
2018-08-23T08:04:24.150Z,26.54
2018-08-23T08:05:25.544Z,26.64
2018-08-23T08:06:26.939Z,26.65
2018-08-23T08:07:28.338Z,26.60
2018-08-23T08:08:29.727Z,26.66
2018-08-23T08:09:31.125Z,26.69
2018-08-23T08:10:32.521Z,26.66
2018-08-23T08:11:33.908Z,26.84
2018-08-23T08:12:35.313Z,26.88
2018-08-23T08:13:36.706Z,26.91
2018-08-23T08:14:38.109Z,26.94
2018-08-23T08:15:39.496Z,27.01
2018-08-23T08:16:40.906Z,27.09
2018-08-23T08:17:42.309Z,27.09
2018-08-23T08:18:43.693Z,27.20
2018-08-23T08:19:45.944Z,27.28
2018-08-23T08:20:47.342Z,27.38
2018-08-23T08:21:48.729Z,27.35
2018-08-23T08:22:50.137Z,27.46
2018-08-23T08:23:51.520Z,27.45
2018-08-23T08:24:52.920Z,27.46
2018-08-23T08:25:54.311Z,27.52
2018-08-23T08:26:55.713Z,27.45
2018-08-23T08:27:57.108Z,27.45
2018-08-23T08:28:58.512Z,27.59
2018-08-23T08:29:59.911Z,27.63
2018-08-23T08:31:01.375Z,27.69
2018-08-23T08:32:02.710Z,27.74
2018-08-23T08:33:04.125Z,27.78
2018-08-23T08:34:05.505Z,27.81
2018-08-23T08:35:06.899Z,27.78
2018-08-23T08:36:08.303Z,27.83
2018-08-23T08:37:09.706Z,27.86
2018-08-23T08:38:11.090Z,27.83
2018-08-23T08:39:12.492Z,27.91
2018-08-23T08:40:13.894Z,27.99
2018-08-23T08:41:15.290Z,28.05
2018-08-23T08:42:16.692Z,28.13
2018-08-23T08:43:18.096Z,28.11
2018-08-23T08:44:19.498Z,28.11
2018-08-23T08:45:20.901Z,28.33
2018-08-23T08:46:22.296Z,28.28
2018-08-23T08:47:23.687Z,28.36
2018-08-23T08:48:25.079Z,28.35
2018-08-23T08:49:26.470Z,28.36
2018-08-23T08:50:27.913Z,28.45
2018-08-23T08:51:29.275Z,28.45
2018-08-23T08:52:30.671Z,28.52
2018-08-23T08:53:32.084Z,28.60
2018-08-23T08:54:33.475Z,28.70
2018-08-23T08:55:34.890Z,28.74
2018-08-23T08:56:36.324Z,28.77
2018-08-23T08:57:37.704Z,28.82
2018-08-23T08:58:39.083Z,28.92
2018-08-23T08:59:40.478Z,28.85
2018-08-23T09:00:41.882Z,28.79
2018-08-23T09:01:43.309Z,28.82
2018-08-23T09:02:44.736Z,28.85
2018-08-23T09:03:46.160Z,28.77
2018-08-23T09:04:47.566Z,28.85
2018-08-23T09:05:48.988Z,28.83
2018-08-23T09:06:50.405Z,28.83
2018-08-23T09:07:51.808Z,28.97
2018-08-23T09:08:53.224Z,28.77
2018-08-23T09:09:54.664Z,28.82
2018-08-23T09:10:55.991Z,28.82
2018-08-23T09:11:57.463Z,28.89
2018-08-23T09:12:58.866Z,28.94
2018-08-23T09:14:00.274Z,29.05
2018-08-23T09:15:01.705Z,29.14
2018-08-23T09:16:03.105Z,29.23
2018-08-23T09:17:04.506Z,29.20
2018-08-23T09:18:06.299Z,29.30
2018-08-23T09:19:07.652Z,29.39
2018-08-23T09:20:09.065Z,29.35
2018-08-23T09:21:10.463Z,29.36
2018-08-23T09:22:11.867Z,29.30
2018-08-23T09:23:13.267Z,29.45
2018-08-23T09:24:14.659Z,29.47
2018-08-23T09:25:16.078Z,29.47
2018-08-23T09:26:17.457Z,29.52
2018-08-23T09:27:18.962Z,29.64
2018-08-23T09:28:20.270Z,29.69
2018-08-23T09:29:21.679Z,29.69
2018-08-23T09:30:23.094Z,29.66
2018-08-23T09:31:24.508Z,29.71
2018-08-23T09:32:25.924Z,29.88
2018-08-23T09:33:27.321Z,30.00
2018-08-23T09:34:28.712Z,30.01
2018-08-23T09:35:30.129Z,30.06
2018-08-23T09:36:31.510Z,30.10
2018-08-23T09:37:32.920Z,30.11
2018-08-23T09:38:34.323Z,30.13
2018-08-23T09:39:35.718Z,30.08
2018-08-23T09:40:37.110Z,30.08
2018-08-23T09:41:38.544Z,30.08
2018-08-23T09:42:39.925Z,30.11
2018-08-23T09:43:41.320Z,30.10
2018-08-23T09:44:42.735Z,30.13
2018-08-23T09:45:44.147Z,30.06
2018-08-23T09:46:45.537Z,30.04
2018-08-23T09:47:46.939Z,30.06
2018-08-23T09:48:48.335Z,30.11
2018-08-23T09:49:49.746Z,30.16
2018-08-23T09:50:51.234Z,30.22
2018-08-23T09:51:52.552Z,30.22
2018-08-23T09:52:53.953Z,30.42
2018-08-23T09:53:55.358Z,30.25
2018-08-23T09:54:56.750Z,30.26
2018-08-23T09:55:58.160Z,30.42
2018-08-23T09:56:59.563Z,30.44
2018-08-23T09:58:00.967Z,30.56
2018-08-23T09:59:02.369Z,30.59
2018-08-23T10:00:03.777Z,30.56
2018-08-23T10:01:05.172Z,30.51
2018-08-23T10:02:06.565Z,30.60
2018-08-23T10:03:07.966Z,30.73
2018-08-23T10:04:09.387Z,30.83
2018-08-23T10:05:10.776Z,30.83
2018-08-23T10:06:12.746Z,30.96
2018-08-23T10:07:13.512Z,31.10
2018-08-23T10:08:14.918Z,31.12
2018-08-23T10:09:16.352Z,31.40
2018-08-23T10:10:17.717Z,31.59
2018-08-23T10:11:19.173Z,31.91
2018-08-23T10:12:20.530Z,31.97
2018-08-23T10:13:21.940Z,32.28
2018-08-23T10:14:23.342Z,32.29
2018-08-23T10:15:24.747Z,32.41
2018-08-23T10:16:26.151Z,32.50
2018-08-23T10:17:27.543Z,32.27
2018-08-23T10:18:28.953Z,32.16
2018-08-23T10:19:30.361Z,32.22
2018-08-23T10:20:31.756Z,32.06
2018-08-23T10:21:33.151Z,31.94
2018-08-23T10:22:34.552Z,31.84
2018-08-23T10:23:35.961Z,31.82
2018-08-23T10:24:38.035Z,31.84
2018-08-23T10:25:39.939Z,31.90
2018-08-23T10:26:42.254Z,32.13
2018-08-23T10:27:43.503Z,32.29
2018-08-23T10:28:44.915Z,32.36
2018-08-23T10:29:46.312Z,32.46
2018-08-23T10:30:47.723Z,32.59
2018-08-23T10:31:49.117Z,32.73
2018-08-23T10:32:50.522Z,32.83
2018-08-23T10:33:51.935Z,32.72
2018-08-23T10:34:53.344Z,32.62
2018-08-23T10:35:54.752Z,32.58
2018-08-23T10:36:56.138Z,32.58
2018-08-23T10:37:57.530Z,32.43
2018-08-23T10:38:58.931Z,32.31
2018-08-23T10:40:00.344Z,32.21
2018-08-23T10:41:01.737Z,31.99
2018-08-23T10:42:03.143Z,31.76
2018-08-23T10:43:04.552Z,31.71
2018-08-23T10:44:06.013Z,31.74
2018-08-23T10:45:07.370Z,31.67
2018-08-23T10:46:08.779Z,31.75
2018-08-23T10:47:10.176Z,31.76
2018-08-23T10:48:11.572Z,31.62
2018-08-23T10:49:12.976Z,31.68
2018-08-23T10:50:14.375Z,31.57
2018-08-23T10:51:15.767Z,31.54
2018-08-23T10:52:17.187Z,31.40
2018-08-23T10:53:18.625Z,31.42
2018-08-23T10:54:20.014Z,31.28
2018-08-23T10:55:21.413Z,31.32
2018-08-23T10:56:22.813Z,31.35
2018-08-23T10:57:24.226Z,31.52
2018-08-23T10:58:25.624Z,31.82
2018-08-23T10:59:27.040Z,32.07
2018-08-23T11:00:28.456Z,32.22
2018-08-23T11:01:29.858Z,32.29
2018-08-23T11:02:31.270Z,32.58
2018-08-23T11:03:32.677Z,32.78
2018-08-23T11:04:34.081Z,32.95
2018-08-23T11:05:35.499Z,33.06
2018-08-23T11:06:36.908Z,33.05
2018-08-23T11:07:38.326Z,33.11
2018-08-23T11:08:39.716Z,33.02
2018-08-23T11:09:41.152Z,33.15
2018-08-23T11:10:42.546Z,33.12
2018-08-23T11:11:43.952Z,33.20
2018-08-23T11:12:45.357Z,33.12
2018-08-23T11:13:46.768Z,33.17
2018-08-23T11:14:48.168Z,33.20
2018-08-23T11:15:49.569Z,33.21
2018-08-23T11:16:51.011Z,33.24
2018-08-23T11:17:52.342Z,33.34
2018-08-23T11:18:53.737Z,33.45
2018-08-23T11:19:55.149Z,33.34
2018-08-23T11:20:56.547Z,33.22
2018-08-23T11:21:57.957Z,33.35
2018-08-23T11:22:59.389Z,33.28
2018-08-23T11:24:00.779Z,33.11
2018-08-23T11:25:02.210Z,33.07
2018-08-23T11:26:03.610Z,33.05
2018-08-23T11:27:05.014Z,32.73
2018-08-23T11:28:06.420Z,32.65
2018-08-23T11:29:07.835Z,32.59
2018-08-23T11:30:09.247Z,32.53
2018-08-23T11:31:10.647Z,32.53
2018-08-23T11:32:12.058Z,32.56
2018-08-23T11:33:13.460Z,32.54
2018-08-23T11:34:14.860Z,32.61
2018-08-23T11:35:16.313Z,32.65
2018-08-23T11:36:17.618Z,32.73
2018-08-23T11:37:19.033Z,32.88
2018-08-23T11:38:20.427Z,32.85
2018-08-23T11:39:21.834Z,32.65
2018-08-23T11:40:23.242Z,32.63
2018-08-23T11:41:24.648Z,32.65
2018-08-23T11:42:26.139Z,32.51
2018-08-23T11:43:27.557Z,32.47
2018-08-23T11:44:28.961Z,32.43
2018-08-23T11:45:30.358Z,32.35
2018-08-23T11:46:31.766Z,32.31
2018-08-23T11:47:33.169Z,32.40
2018-08-23T11:48:34.575Z,32.44
2018-08-23T11:49:35.976Z,32.40
2018-08-23T11:50:37.367Z,32.16
2018-08-23T11:51:38.774Z,31.99
2018-08-23T11:52:40.173Z,31.88
2018-08-23T11:53:41.663Z,31.84
2018-08-23T11:54:42.972Z,31.82
2018-08-23T11:55:44.374Z,31.71
2018-08-23T11:56:45.778Z,31.82
2018-08-23T11:57:47.185Z,31.87
2018-08-23T11:58:48.578Z,31.87
2018-08-23T11:59:49.978Z,32.02
2018-08-23T12:00:51.378Z,31.99
2018-08-23T12:01:52.803Z,32.02
2018-08-23T12:02:54.204Z,32.07
2018-08-23T12:03:55.633Z,31.99
2018-08-23T12:04:57.023Z,31.99
2018-08-23T12:05:58.432Z,31.99
2018-08-23T12:06:59.838Z,31.92
2018-08-23T12:08:01.243Z,31.82
2018-08-23T12:09:02.637Z,31.88
2018-08-23T12:10:04.043Z,31.76
2018-08-23T12:11:05.447Z,31.75
2018-08-23T12:12:07.697Z,31.68
2018-08-23T12:13:09.108Z,31.69
2018-08-23T12:14:10.502Z,31.59
2018-08-23T12:15:11.915Z,31.65
2018-08-23T12:16:13.306Z,31.60
2018-08-23T12:17:14.707Z,31.65
2018-08-23T12:18:16.113Z,31.71
2018-08-23T12:19:17.507Z,31.64
2018-08-23T12:20:18.913Z,31.87
2018-08-23T12:21:20.306Z,31.92
2018-08-23T12:22:21.708Z,31.88
2018-08-23T12:23:23.096Z,31.85
2018-08-23T12:24:24.503Z,31.78
2018-08-23T12:25:25.914Z,31.74
2018-08-23T12:26:27.312Z,31.82
2018-08-23T12:27:28.716Z,31.82
2018-08-23T12:28:30.124Z,31.87
2018-08-23T12:29:31.530Z,31.85
2018-08-23T12:30:32.945Z,31.75
2018-08-23T12:31:34.354Z,31.72
2018-08-23T12:32:35.735Z,31.69
2018-08-23T12:33:37.143Z,31.68
2018-08-23T12:34:38.534Z,31.62
2018-08-23T12:35:39.942Z,31.50
2018-08-23T12:36:41.346Z,31.52
2018-08-23T12:37:42.861Z,31.42
2018-08-23T12:38:44.145Z,31.40
2018-08-23T12:39:45.549Z,31.41
2018-08-23T12:40:46.977Z,31.32
2018-08-23T12:41:48.340Z,31.47
2018-08-23T12:42:49.738Z,31.37
2018-08-23T12:43:51.192Z,31.32
2018-08-23T12:44:52.543Z,31.38
2018-08-23T12:45:53.945Z,31.45
2018-08-23T12:46:55.353Z,31.62
2018-08-23T12:47:56.754Z,31.64
2018-08-23T12:48:58.144Z,31.68
2018-08-23T12:49:59.541Z,31.72
2018-08-23T12:51:00.934Z,31.78
2018-08-23T12:52:02.336Z,31.82
2018-08-23T12:53:03.737Z,31.91
2018-08-23T12:54:05.153Z,32.13
2018-08-23T12:55:06.540Z,32.07
2018-08-23T12:56:07.946Z,32.31
2018-08-23T12:57:09.344Z,32.29
2018-08-23T12:58:10.758Z,32.40
2018-08-23T12:59:12.167Z,32.36
2018-08-23T13:00:13.572Z,32.12
2018-08-23T13:01:14.979Z,32.10
2018-08-23T13:02:16.419Z,31.98
2018-08-23T13:03:17.739Z,31.92
2018-08-23T13:04:19.223Z,31.94
2018-08-23T13:05:20.540Z,31.82
2018-08-23T13:06:21.949Z,31.69
2018-08-23T13:07:23.351Z,31.57
2018-08-23T13:08:24.796Z,31.47
2018-08-23T13:09:26.157Z,31.37
2018-08-23T13:10:27.565Z,31.50